Time;durP1;ratioP1;P1;durP2;ratioP2;P2;SDS_P1;SDS_P2;PMS_P1;PMS_P2;Temp;Humidity;BMP_temperature;BMP_pressure;BME280_temperature;BME280_humidity;BME280_pressure;Samples;Min_cycle;Max_cycle;Signal;HPM_P1;HPM_P2
2022/04/02 00:00:19;;;;;;;;;;;;;;;17.70;41.14;99186.63;5018079;28;845;-56
2022/04/02 00:02:47;;;;;;;;;;;;;;;17.53;40.26;99176.38;5018671;28;735;-56
2022/04/02 00:05:13;;;;;;;;;;;;;;;17.36;39.74;99161.47;5018167;28;767;-56
2022/04/02 00:07:38;;;;;;;;;;;;;;;17.24;39.03;99161.25;5002179;28;891;-57
2022/04/02 00:10:05;;;;;;;;;;;;;;;17.14;38.69;99172.50;4999334;28;892;-56
2022/04/02 00:12:31;;;;;;;;;;;;;;;17.12;38.53;99172.03;4999673;28;1985;-57
2022/04/02 00:14:56;;;;;;;;;;;;;;;17.14;39.15;99159.63;4999191;28;982;-57
2022/04/02 00:17:23;;;;;;;;;;;;;;;17.23;40.20;99156.88;4999639;28;810;-57
2022/04/02 00:19:48;;;;;;;;;;;;;;;17.40;41.51;99156.13;4994791;28;1141;-57
2022/04/02 00:22:14;;;;;;;;;;;;;;;17.55;42.99;99143.91;4999750;28;797;-57
2022/04/02 00:24:40;;;;;;;;;;;;;;;17.72;43.67;99140.38;4999020;28;835;-56
2022/04/02 00:27:05;;;;;;;;;;;;;;;17.82;44.29;99125.50;4999214;28;731;-56
2022/04/02 00:29:32;;;;;;;;;;;;;;;17.94;44.90;99139.47;4981457;28;1074;-53
2022/04/02 00:31:57;;;;;;;;;;;;;;;17.99;45.32;99130.25;4998616;28;1973;-55
2022/04/02 00:34:23;;;;;;;;;;;;;;;18.09;45.13;99118.91;4998553;28;973;-55
2022/04/02 00:36:48;;;;;;;;;;;;;;;18.12;45.19;99127.31;4998958;28;825;-54
2022/04/02 00:39:14;;;;;;;;;;;;;;;18.12;45.58;99126.53;4998250;28;1203;-54
2022/04/02 00:41:39;;;;;;;;;;;;;;;18.20;45.38;99133.16;4998250;28;758;-55
2022/04/02 00:44:12;;;;;;;;;;;;;;;18.25;45.38;99130.25;4998816;28;802;-55
2022/04/02 00:46:38;;;;;;;;;;;;;;;18.32;45.51;99129.75;4999247;28;859;-54
2022/04/02 00:49:05;;;;;;;;;;;;;;;18.34;45.70;99125.53;4998533;28;770;-56
2022/04/02 00:51:33;;;;;;;;;;;;;;;18.42;45.49;99121.16;4980773;28;1973;-54
2022/04/02 00:53:59;;;;;;;;;;;;;;;18.45;45.54;99120.50;4995040;28;1236;-55
2022/04/02 00:56:24;;;;;;;;;;;;;;;18.34;44.79;99113.72;4964768;28;871;-55
2022/04/02 00:58:50;;;;;;;;;;;;;;;18.16;44.16;99121.16;4984111;28;869;-54
2022/04/02 01:01:16;;;;;;;;;;;;;;;17.95;42.46;99116.34;4998321;28;813;-55
2022/04/02 01:03:45;;;;;;;;;;;;;;;17.72;41.42;99116.44;4980615;28;1440;-54
2022/04/02 01:06:11;;;;;;;;;;;;;;;17.57;40.59;99105.91;4981028;28;1188;-55
2022/04/02 01:08:37;;;;;;;;;;;;;;;17.42;40.26;99105.25;4998711;28;826;-54
2022/04/02 01:11:04;;;;;;;;;;;;;;;17.38;39.76;99112.50;4998272;28;1207;-52
2022/04/02 01:13:31;;;;;;;;;;;;;;;17.32;39.43;99110.22;4999390;28;1898;-55
2022/04/02 01:15:57;;;;;;;;;;;;;;;17.24;39.38;99115.38;4999207;28;1380;-55
2022/04/02 01:18:24;;;;;;;;;;;;;;;17.13;39.22;99127.78;4998988;28;1269;-55
2022/04/02 01:20:53;;;;;;;;;;;;;;;17.10;39.23;99129.22;4999363;28;1112;-55
2022/04/02 01:23:29;;;;;;;;;;;;;;;17.10;39.98;99122.91;4996062;28;1462;-55
2022/04/02 01:25:58;;;;;;;;;;;;;;;17.20;40.96;99119.06;4984289;28;1233;-54
2022/04/02 01:28:40;;;;;;;;;;;;;;;17.38;41.92;99109.75;4980752;28;1106;-53
2022/04/02 01:31:12;;;;;;;;;;;;;;;17.61;43.34;99126.13;4980599;28;1878;-54
2022/04/02 01:33:40;;;;;;;;;;;;;;;18.11;45.62;99131.19;4979881;28;1235;-55
2022/04/02 01:36:07;;;;;;;;;;;;;;;18.55;46.52;99133.09;4992757;28;1168;-54
2022/04/02 01:38:46;;;;;;;;;;;;;;;18.78;47.73;99137.25;4996254;28;1150;-53
2022/04/02 01:41:12;;;;;;;;;;;;;;;19.03;47.90;99142.22;4998387;28;1306;-55
2022/04/02 01:43:38;;;;;;;;;;;;;;;18.88;47.30;99136.13;4998746;28;1276;-54
2022/04/02 01:46:04;;;;;;;;;;;;;;;18.52;45.94;99133.75;4998866;28;1157;-56
2022/04/02 01:48:30;;;;;;;;;;;;;;;18.18;44.27;99138.19;4995770;28;1165;-54
2022/04/02 01:51:03;;;;;;;;;;;;;;;17.89;42.33;99139.59;4998958;28;1285;-54
2022/04/02 01:53:28;;;;;;;;;;;;;;;17.66;41.19;99134.22;5015469;28;1977;-55
2022/04/02 01:55:54;;;;;;;;;;;;;;;17.46;39.89;99127.41;5015134;28;805;-54
2022/04/02 01:58:42;;;;;;;;;;;;;;;17.32;39.04;99124.78;4998525;28;1131;-57
2022/04/02 02:01:12;;;;;;;;;;;;;;;17.22;38.52;99133.28;4995151;28;1551;-58
2022/04/02 02:03:38;;;;;;;;;;;;;;;17.15;38.51;99133.75;4997052;28;771;-57
2022/04/02 02:06:03;;;;;;;;;;;;;;;17.08;38.73;99116.91;4979509;28;1067;-57
2022/04/02 02:08:29;;;;;;;;;;;;;;;17.07;39.96;99121.63;4979770;28;1322;-57
2022/04/02 02:11:07;;;;;;;;;;;;;;;17.46;42.07;99121.91;4993135;28;841;-57
2022/04/02 02:14:05;;;;;;;;;;;;;;;17.88;44.75;99129.72;4950292;28;1096;-58
2022/04/02 02:16:32;;;;;;;;;;;;;;;18.13;46.26;99131.69;4998161;28;822;-57
2022/04/02 02:18:58;;;;;;;;;;;;;;;18.44;47.28;99138.97;4997454;28;1242;-57
2022/04/02 02:21:23;;;;;;;;;;;;;;;18.68;47.38;99134.88;4998354;28;736;-57
2022/04/02 02:23:51;;;;;;;;;;;;;;;18.81;47.71;99133.84;4995027;28;1215;-57
2022/04/02 02:26:16;;;;;;;;;;;;;;;18.71;47.02;99144.41;5010232;28;793;-57
2022/04/02 02:28:42;;;;;;;;;;;;;;;18.44;46.00;99132.66;4980332;28;1132;-57
2022/04/02 02:31:15;;;;;;;;;;;;;;;18.23;44.32;99135.25;4996887;28;1906;-57
2022/04/02 02:36:25;;;;;;;;;;;;;;;17.74;41.21;99143.59;4997586;28;795;-57
2022/04/02 02:38:57;;;;;;;;;;;;;;;17.58;40.27;99157.00;4997816;28;1213;-57
2022/04/02 02:41:32;;;;;;;;;;;;;;;17.39;39.67;99149.00;4997632;28;1281;-57
2022/04/02 02:44:02;;;;;;;;;;;;;;;17.29;39.30;99144.63;4998351;28;1139;-59
2022/04/02 02:46:34;;;;;;;;;;;;;;;17.17;39.38;99141.69;4998095;28;1454;-59
2022/04/02 02:49:06;;;;;;;;;;;;;;;17.12;38.78;99150.06;4997991;28;1172;-58
2022/04/02 02:51:31;;;;;;;;;;;;;;;17.01;38.80;99150.34;4994267;28;1980;-58
2022/04/02 02:53:57;;;;;;;;;;;;;;;16.98;38.73;99145.47;4992023;28;1110;-57
2022/04/02 02:56:23;;;;;;;;;;;;;;;17.01;39.85;99144.03;4982137;28;1156;-57
2022/04/02 02:58:49;;;;;;;;;;;;;;;17.18;40.75;99157.84;4997023;28;786;-56
2022/04/02 03:01:16;;;;;;;;;;;;;;;17.37;42.10;99157.56;4979161;28;1345;-57
2022/04/02 03:03:43;;;;;;;;;;;;;;;17.46;42.84;99154.88;4979638;28;1109;-56
2022/04/02 03:06:13;;;;;;;;;;;;;;;17.61;43.66;99156.34;4991218;28;1097;-56
2022/04/02 03:08:42;;;;;;;;;;;;;;;17.64;44.19;99141.97;4983104;28;1168;-57
2022/04/02 03:11:07;;;;;;;;;;;;;;;17.71;44.20;99125.84;5016409;28;751;-57
2022/04/02 03:13:37;;;;;;;;;;;;;;;17.78;44.56;99128.91;5019212;28;1902;-60
2022/04/02 03:16:08;;;;;;;;;;;;;;;17.82;44.78;99136.50;5001636;28;1109;-58
2022/04/02 03:18:40;;;;;;;;;;;;;;;17.92;44.84;99141.72;4990679;28;959;-58
2022/04/02 03:21:09;;;;;;;;;;;;;;;17.98;44.72;99154.19;4982463;28;1139;-59
2022/04/02 03:23:35;;;;;;;;;;;;;;;18.05;45.10;99146.25;5000384;28;858;-59
2022/04/02 03:26:01;;;;;;;;;;;;;;;18.11;44.84;99141.41;4984515;28;1327;-59
2022/04/02 03:28:29;;;;;;;;;;;;;;;18.19;45.57;99150.78;4983030;28;1113;-58
2022/04/02 03:30:55;;;;;;;;;;;;;;;18.24;45.18;99142.38;4999998;28;953;-58
2022/04/02 03:33:20;;;;;;;;;;;;;;;18.26;45.21;99145.63;4982386;28;1898;-57
2022/04/02 03:35:46;;;;;;;;;;;;;;;18.27;45.46;99122.44;4981896;28;920;-58
2022/04/02 03:38:13;;;;;;;;;;;;;;;18.24;45.59;99120.34;4994672;28;1102;-59
2022/04/02 03:40:41;;;;;;;;;;;;;;;18.31;45.23;99134.44;4975209;28;1370;-58
2022/04/02 03:43:08;;;;;;;;;;;;;;;18.18;44.72;99141.72;4999205;28;1244;-57
2022/04/02 03:45:35;;;;;;;;;;;;;;;18.02;43.75;99146.91;4982836;28;1245;-58
2022/04/02 03:48:01;;;;;;;;;;;;;;;17.83;42.46;99146.38;4999741;28;758;-57
2022/04/02 03:50:32;;;;;;;;;;;;;;;17.64;41.40;99150.22;4998180;28;1301;-58
2022/04/02 03:52:58;;;;;;;;;;;;;;;17.52;40.53;99152.78;4999947;28;2267;-59
2022/04/02 03:55:35;;;;;;;;;;;;;;;17.39;40.14;99146.25;4988606;28;1180;-58
2022/04/02 03:58:06;;;;;;;;;;;;;;;17.28;39.88;99143.03;4982652;28;1180;-59
2022/04/02 04:00:32;;;;;;;;;;;;;;;17.23;39.53;99148.66;4997782;28;900;-58
2022/04/02 04:03:04;;;;;;;;;;;;;;;17.14;39.66;99158.78;4981027;28;1365;-58
2022/04/02 04:05:40;;;;;;;;;;;;;;;17.22;40.27;99158.00;4982090;28;1286;-58
2022/04/02 04:08:08;;;;;;;;;;;;;;;17.32;41.52;99174.22;4981103;28;1421;-58
2022/04/02 04:10:34;;;;;;;;;;;;;;;17.56;43.34;99159.28;4997498;28;1212;-59
2022/04/02 04:13:00;;;;;;;;;;;;;;;18.12;45.33;99171.34;5000802;28;1923;-58
2022/04/02 04:15:29;;;;;;;;;;;;;;;18.57;46.09;99166.63;5000204;28;1228;-58
2022/04/02 04:17:57;;;;;;;;;;;;;;;18.80;46.84;99170.81;5000351;28;1117;-58
2022/04/02 04:20:23;;;;;;;;;;;;;;;18.96;47.43;99171.09;5000198;28;1302;-58
2022/04/02 04:22:49;;;;;;;;;;;;;;;18.73;46.99;99170.50;4999721;28;1153;-59
2022/04/02 04:25:18;;;;;;;;;;;;;;;18.43;45.35;99178.63;4998611;28;1253;-58
2022/04/02 04:27:45;;;;;;;;;;;;;;;18.13;43.81;99178.47;5000084;28;1114;-59
2022/04/02 04:30:13;;;;;;;;;;;;;;;17.83;42.68;99187.63;5000365;28;1332;-58
2022/04/02 04:32:40;;;;;;;;;;;;;;;17.62;41.60;99175.28;4998206;28;1913;-58
2022/04/02 04:35:06;;;;;;;;;;;;;;;17.52;40.69;99185.78;5010879;28;739;-58
2022/04/02 04:37:34;;;;;;;;;;;;;;;17.41;40.12;99186.03;5017562;28;1174;-58
2022/04/02 04:39:59;;;;;;;;;;;;;;;17.34;39.33;99182.94;5010743;28;790;-58
2022/04/02 04:42:25;;;;;;;;;;;;;;;17.18;39.22;99184.50;5018056;28;774;-58
2022/04/02 04:44:55;;;;;;;;;;;;;;;17.06;38.92;99185.91;4999946;28;1418;-58
2022/04/02 04:47:21;;;;;;;;;;;;;;;17.13;39.39;99196.44;4987560;28;1223;-59
2022/04/02 04:49:49;;;;;;;;;;;;;;;17.37;41.64;99190.56;4981341;28;1125;-58
2022/04/02 04:52:15;;;;;;;;;;;;;;;17.86;44.96;99186.97;4981344;28;1957;-58
2022/04/02 04:54:41;;;;;;;;;;;;;;;18.27;46.72;99194.81;4986292;28;1356;-58
2022/04/02 04:57:19;;;;;;;;;;;;;;;18.64;47.64;99199.97;4994223;28;1357;-58
2022/04/02 04:59:56;;;;;;;;;;;;;;;18.91;48.06;99209.81;4982756;28;1380;-58
2022/04/02 05:02:23;;;;;;;;;;;;;;;18.97;47.80;99210.47;4999390;28;795;-59
2022/04/02 05:04:49;;;;;;;;;;;;;;;18.64;46.86;99222.00;4999457;28;1408;-58
2022/04/02 05:07:15;;;;;;;;;;;;;;;18.35;45.07;99228.16;4999009;28;787;-58
2022/04/02 05:09:42;;;;;;;;;;;;;;;18.06;43.37;99227.66;5013778;28;834;-58
2022/04/02 05:12:08;;;;;;;;;;;;;;;17.83;41.67;99226.13;4993027;28;1914;-58
2022/04/02 05:14:38;;;;;;;;;;;;;;;17.61;40.63;99222.31;4981132;28;1148;-59
2022/04/02 05:17:05;;;;;;;;;;;;;;;17.41;39.93;99221.75;4980718;28;1336;-58
2022/04/02 05:19:33;;;;;;;;;;;;;;;17.27;39.14;99234.78;4965258;28;1384;-58
2022/04/02 05:22:01;;;;;;;;;;;;;;;17.15;38.71;99238.13;4980975;28;1227;-58
2022/04/02 05:24:30;;;;;;;;;;;;;;;17.02;38.42;99234.31;4984432;28;1104;-59
2022/04/02 05:26:56;;;;;;;;;;;;;;;16.95;38.08;99228.47;4986022;28;1138;-58
2022/04/02 05:29:23;;;;;;;;;;;;;;;16.95;38.34;99238.66;4998579;28;1037;-58
2022/04/02 05:31:48;;;;;;;;;;;;;;;16.95;38.65;99238.66;4997882;28;1918;-59
2022/04/02 05:34:14;;;;;;;;;;;;;;;16.96;39.17;99241.09;4998052;28;775;-58
2022/04/02 05:36:41;;;;;;;;;;;;;;;16.98;39.52;99247.06;4998338;28;779;-58
2022/04/02 05:39:06;;;;;;;;;;;;;;;17.03;40.15;99249.69;4986606;28;1129;-58
2022/04/02 05:41:32;;;;;;;;;;;;;;;17.00;40.28;99252.25;5016602;28;811;-58
2022/04/02 05:43:58;;;;;;;;;;;;;;;17.06;40.62;99270.22;4999415;28;1341;-58
2022/04/02 05:46:24;;;;;;;;;;;;;;;17.02;40.86;99255.50;5016429;28;824;-58
2022/04/02 05:48:49;;;;;;;;;;;;;;;17.00;40.82;99261.31;5005345;28;892;-59
2022/04/02 05:51:15;;;;;;;;;;;;;;;16.96;40.98;99264.97;5008381;28;763;-59
2022/04/02 05:53:41;;;;;;;;;;;;;;;17.07;41.75;99261.66;5006269;28;1959;-60
2022/04/02 05:56:09;;;;;;;;;;;;;;;17.19;42.69;99260.28;4997848;28;809;-58
2022/04/02 05:58:36;;;;;;;;;;;;;;;17.29;43.49;99260.00;4997933;28;823;-58
2022/04/02 06:01:01;;;;;;;;;;;;;;;17.40;43.92;99258.63;4983390;28;866;-59
2022/04/02 06:03:27;;;;;;;;;;;;;;;17.52;44.13;99260.78;5010225;28;762;-60
2022/04/02 06:05:52;;;;;;;;;;;;;;;17.61;44.90;99260.81;5016451;28;1178;-60
2022/04/02 06:08:18;;;;;;;;;;;;;;;17.63;44.66;99261.31;5014552;28;1215;-59
2022/04/02 06:10:44;;;;;;;;;;;;;;;17.69;44.91;99273.78;4996571;28;1442;-59
2022/04/02 06:13:10;;;;;;;;;;;;;;;17.71;44.74;99270.69;4997013;28;1914;-59
2022/04/02 06:15:35;;;;;;;;;;;;;;;17.76;45.02;99281.56;4995784;28;1299;-60
2022/04/02 06:18:01;;;;;;;;;;;;;;;17.84;45.18;99278.03;4996919;28;1294;-59
2022/04/02 06:20:26;;;;;;;;;;;;;;;17.90;45.37;99285.00;4997808;28;876;-59
2022/04/02 06:22:52;;;;;;;;;;;;;;;17.90;45.48;99279.50;4997039;28;843;-60
2022/04/02 06:25:17;;;;;;;;;;;;;;;17.99;45.48;99279.53;5004579;28;981;-59
2022/04/02 06:27:43;;;;;;;;;;;;;;;18.00;45.39;99283.94;5016397;28;746;-59
2022/04/02 06:30:09;;;;;;;;;;;;;;;17.93;45.58;99283.59;5010596;28;756;-60
2022/04/02 06:32:35;;;;;;;;;;;;;;;17.99;45.42;99282.28;5016070;28;1906;-59
2022/04/02 06:35:03;;;;;;;;;;;;;;;17.98;45.30;99286.19;4998812;28;957;-59
2022/04/02 06:37:35;;;;;;;;;;;;;;;18.03;45.21;99285.22;4997079;28;1140;-59
2022/04/02 06:40:01;;;;;;;;;;;;;;;18.02;45.32;99281.69;5009858;28;893;-59
2022/04/02 06:42:26;;;;;;;;;;;;;;;18.07;45.10;99273.25;5016722;28;913;-59
2022/04/02 06:44:52;;;;;;;;;;;;;;;18.16;45.17;99278.81;5004263;28;1633;-59
2022/04/02 06:47:18;;;;;;;;;;;;;;;18.11;45.28;99281.69;5022364;28;854;-60
2022/04/02 06:49:43;;;;;;;;;;;;;;;18.26;45.40;99280.44;4996309;28;1153;-59
2022/04/02 06:52:09;;;;;;;;;;;;;;;18.28;45.75;99287.22;4991872;28;1971;-59
2022/04/02 06:54:34;;;;;;;;;;;;;;;18.21;45.11;99288.84;5004637;28;902;-60
2022/04/02 06:57:00;;;;;;;;;;;;;;;18.02;44.03;99287.19;5002428;28;1072;-59
2022/04/02 06:59:25;;;;;;;;;;;;;;;17.87;42.63;99273.84;5002812;28;1458;-59
2022/04/02 07:01:51;;;;;;;;;;;;;;;17.64;41.74;99265.66;5002957;28;1219;-60
2022/04/02 07:04:16;;;;;;;;;;;;;;;17.51;41.29;99277.56;5002424;28;1137;-60
2022/04/02 07:06:45;;;;;;;;;;;;;;;17.47;40.76;99276.59;5001355;28;1334;-60
2022/04/02 07:09:11;;;;;;;;;;;;;;;17.26;39.63;99282.63;5002246;28;1138;-59
2022/04/02 07:11:37;;;;;;;;;;;;;;;17.12;39.23;99281.91;5002644;28;1882;-59
2022/04/02 07:14:02;;;;;;;;;;;;;;;17.04;38.68;99283.44;5004898;28;1464;-59
2022/04/02 07:16:28;;;;;;;;;;;;;;;17.00;38.53;99280.53;5002995;28;1366;-59
2022/04/02 07:18:54;;;;;;;;;;;;;;;16.89;39.36;99274.47;5002801;28;1405;-59
2022/04/02 07:21:20;;;;;;;;;;;;;;;17.10;40.25;99291.25;4983741;28;1411;-59
2022/04/02 07:23:46;;;;;;;;;;;;;;;17.19;41.54;99283.06;4987624;28;1094;-60
2022/04/02 07:26:11;;;;;;;;;;;;;;;17.43;42.86;99277.22;5003418;28;998;-60
2022/04/02 07:28:37;;;;;;;;;;;;;;;17.86;45.48;99278.50;4984850;28;1092;-61
2022/04/02 07:31:02;;;;;;;;;;;;;;;18.24;46.50;99288.19;5002448;28;831;-59
2022/04/02 07:33:28;;;;;;;;;;;;;;;18.55;47.19;99287.25;5016850;28;1967;-59
2022/04/02 07:35:55;;;;;;;;;;;;;;;18.78;47.71;99290.66;5004161;28;1179;-60
2022/04/02 07:38:21;;;;;;;;;;;;;;;18.88;47.83;99287.59;5002157;28;1195;-61
2022/04/02 07:40:59;;;;;;;;;;;;;;;18.73;46.94;99291.66;4985566;28;1353;-60
2022/04/02 07:43:36;;;;;;;;;;;;;;;18.43;45.27;99293.41;4999759;28;1287;-61
2022/04/02 07:46:05;;;;;;;;;;;;;;;18.05;43.37;99286.53;4984900;28;1205;-61
2022/04/02 07:48:32;;;;;;;;;;;;;;;17.86;42.22;99291.47;5001882;28;1319;-60
2022/04/02 07:50:57;;;;;;;;;;;;;;;17.70;41.04;99302.88;4998347;28;1393;-60
2022/04/02 07:53:23;;;;;;;;;;;;;;;17.50;40.33;99295.19;4995738;28;1969;-61
2022/04/02 07:55:58;;;;;;;;;;;;;;;17.38;39.71;99299.34;4993448;28;1057;-60
2022/04/02 07:58:26;;;;;;;;;;;;;;;17.35;39.68;99297.22;4998637;28;1213;-61
2022/04/02 08:00:53;;;;;;;;;;;;;;;17.20;39.11;99287.44;4982341;28;1323;-60
2022/04/02 08:03:18;;;;;;;;;;;;;;;17.14;38.93;99299.69;4999630;28;1098;-61
2022/04/02 08:05:44;;;;;;;;;;;;;;;17.05;39.20;99294.13;4981261;28;1319;-60
2022/04/02 08:08:09;;;;;;;;;;;;;;;17.03;38.86;99290.88;4981192;28;1296;-60
2022/04/02 08:10:44;;;;;;;;;;;;;;;17.06;39.63;99295.75;4985025;28;1161;-60
2022/04/02 08:13:10;;;;;;;;;;;;;;;17.18;40.97;99284.19;4980433;28;1906;-60
2022/04/02 08:15:38;;;;;;;;;;;;;;;17.39;41.76;99295.47;4965815;28;1377;-58
2022/04/02 08:18:08;;;;;;;;;;;;;;;17.50;43.08;99292.44;4980184;28;1244;-59
2022/04/02 08:20:33;;;;;;;;;;;;;;;17.63;43.79;99294.28;4998758;28;822;-59
2022/04/02 08:23:01;;;;;;;;;;;;;;;17.77;43.98;99294.19;5003558;28;810;-59
2022/04/02 08:25:28;;;;;;;;;;;;;;;17.81;44.60;99305.34;4991952;28;1377;-60
2022/04/02 08:27:54;;;;;;;;;;;;;;;17.93;44.84;99305.59;4997189;28;1050;-59
2022/04/02 08:30:38;;;;;;;;;;;;;;;17.98;44.96;99305.44;4995737;28;1248;-58
2022/04/02 08:33:12;;;;;;;;;;;;;;;18.02;44.85;99300.94;4999068;28;1894;-56
2022/04/02 08:35:56;;;;;;;;;;;;;;;18.06;44.97;99296.41;4999090;28;791;-57
2022/04/02 08:38:27;;;;;;;;;;;;;;;18.07;45.43;99299.97;5017480;28;1191;-56
2022/04/02 08:41:04;;;;;;;;;;;;;;;18.15;45.31;99304.69;4978758;28;1062;-56
2022/04/02 08:43:41;;;;;;;;;;;;;;;18.17;45.35;99315.38;4977080;28;1196;-56
2022/04/02 08:46:25;;;;;;;;;;;;;;;18.25;45.20;99311.81;4996822;28;1228;-56
2022/04/02 08:48:58;;;;;;;;;;;;;;;18.24;44.92;99304.69;4983425;28;937;-57
2022/04/02 08:51:40;;;;;;;;;;;;;;;18.23;44.60;99303.06;5017463;28;811;-56
2022/04/02 08:54:07;;;;;;;;;;;;;;;18.23;44.39;99317.66;5011983;28;901;-56
2022/04/02 08:56:34;;;;;;;;;;;;;;;18.16;43.95;99317.31;4981334;28;921;-57
2022/04/02 08:59:01;;;;;;;;;;;;;;;18.04;42.99;99317.13;4980905;28;985;-57
2022/04/02 09:01:28;;;;;;;;;;;;;;;17.86;41.79;99300.50;5001467;28;828;-56
2022/04/02 09:04:11;;;;;;;;;;;;;;;17.66;41.08;99320.34;5017557;28;909;-56
2022/04/02 09:06:46;;;;;;;;;;;;;;;17.53;39.97;99319.28;5017581;28;814;-56
2022/04/02 09:09:21;;;;;;;;;;;;;;;17.41;39.76;99317.13;5011682;28;822;-56
2022/04/02 09:11:59;;;;;;;;;;;;;;;17.32;39.19;99319.84;4993220;28;1975;-56
2022/04/02 09:14:37;;;;;;;;;;;;;;;17.22;38.75;99320.91;5006829;28;874;-56
2022/04/02 09:17:21;;;;;;;;;;;;;;;17.12;38.37;99312.09;5017109;28;971;-56
2022/04/02 09:19:59;;;;;;;;;;;;;;;17.08;38.25;99317.41;5016948;28;878;-56
2022/04/02 09:22:29;;;;;;;;;;;;;;;17.02;38.13;99322.19;5017134;28;830;-56
2022/04/02 09:24:58;;;;;;;;;;;;;;;17.09;38.76;99333.56;4992604;28;843;-57
2022/04/02 09:27:23;;;;;;;;;;;;;;;17.27;40.69;99333.69;4997698;28;854;-56
2022/04/02 09:29:58;;;;;;;;;;;;;;;17.71;43.61;99329.25;4998076;28;910;-56
2022/04/02 09:32:43;;;;;;;;;;;;;;;18.24;45.26;99332.22;4998372;28;1910;-57
2022/04/02 09:35:20;;;;;;;;;;;;;;;18.61;46.46;99327.28;4958280;28;1194;-56
2022/04/02 09:38:04;;;;;;;;;;;;;;;18.91;47.03;99322.75;4977417;28;988;-56
2022/04/02 09:40:43;;;;;;;;;;;;;;;18.65;46.10;99314.47;4977983;28;953;-56
2022/04/02 09:43:29;;;;;;;;;;;;;;;18.24;44.58;99316.53;4977253;28;1078;-57
2022/04/02 09:45:57;;;;;;;;;;;;;;;18.04;42.57;99317.13;4978515;28;1217;-56
2022/04/02 09:48:24;;;;;;;;;;;;;;;17.79;41.34;99317.50;4978411;28;818;-57
2022/04/02 09:50:50;;;;;;;;;;;;;;;17.61;40.66;99318.53;4977749;28;997;-56
2022/04/02 09:53:16;;;;;;;;;;;;;;;17.52;39.91;99314.94;4987503;28;1970;-56
2022/04/02 09:55:54;;;;;;;;;;;;;;;17.40;39.66;99313.59;4979850;28;1022;-56
2022/04/02 09:58:43;;;;;;;;;;;;;;;17.29;39.57;99309.44;4978235;28;751;-57
2022/04/02 10:01:27;;;;;;;;;;;;;;;17.26;39.32;99310.91;4970143;28;1223;-57
2022/04/02 10:03:55;;;;;;;;;;;;;;;17.18;38.95;99299.84;4977974;28;908;-57
2022/04/02 10:06:20;;;;;;;;;;;;;;;17.07;38.96;99297.38;4988283;28;853;-56
2022/04/02 10:09:05;;;;;;;;;;;;;;;17.00;39.13;99294.25;4993880;28;874;-56
2022/04/02 10:11:30;;;;;;;;;;;;;;;16.98;38.97;99304.72;4978423;28;1987;-56
2022/04/02 10:13:57;;;;;;;;;;;;;;;16.96;38.95;99297.91;4977385;28;850;-56
2022/04/02 10:16:25;;;;;;;;;;;;;;;16.92;39.49;99295.00;4976790;28;1096;-56
2022/04/02 10:18:52;;;;;;;;;;;;;;;17.19;41.52;99296.78;4979213;28;983;-56
2022/04/02 10:21:17;;;;;;;;;;;;;;;17.73;44.51;99294.00;4978041;28;893;-56
2022/04/02 10:23:43;;;;;;;;;;;;;;;18.05;46.66;99303.03;4976439;28;940;-56
2022/04/02 10:26:14;;;;;;;;;;;;;;;18.38;47.68;99299.84;4976842;28;832;-57
2022/04/02 10:28:58;;;;;;;;;;;;;;;18.67;48.19;99297.63;4977840;28;909;-57
2022/04/02 10:31:24;;;;;;;;;;;;;;;18.79;48.18;99301.34;4974510;28;970;-56
2022/04/02 10:33:49;;;;;;;;;;;;;;;18.60;46.91;99300.88;4977025;28;1958;-56
2022/04/02 10:36:14;;;;;;;;;;;;;;;18.28;45.37;99297.41;4976714;28;831;-56
2022/04/02 10:38:41;;;;;;;;;;;;;;;18.03;43.59;99302.53;4976189;28;979;-56
2022/04/02 10:41:19;;;;;;;;;;;;;;;17.75;42.23;99299.19;4970244;28;807;-56
2022/04/02 10:43:49;;;;;;;;;;;;;;;17.59;41.47;99293.31;4983538;28;776;-56
2022/04/02 10:46:15;;;;;;;;;;;;;;;17.49;40.46;99296.31;4996247;28;743;-56
2022/04/02 10:48:57;;;;;;;;;;;;;;;17.37;39.90;99294.97;4995854;28;756;-56
2022/04/02 10:51:32;;;;;;;;;;;;;;;17.22;39.25;99292.59;4988709;28;931;-56
2022/04/02 10:54:02;;;;;;;;;;;;;;;17.08;39.27;99288.00;4977187;28;810;-57
2022/04/02 10:56:28;;;;;;;;;;;;;;;17.07;39.22;99283.66;4988114;28;791;-57
2022/04/02 10:58:54;;;;;;;;;;;;;;;17.00;38.86;99277.78;4995357;28;870;-56
2022/04/02 11:01:21;;;;;;;;;;;;;;;16.92;38.92;99273.03;4996040;28;858;-55
2022/04/02 11:03:54;;;;;;;;;;;;;;;16.96;39.22;99282.28;4979431;28;1216;-56
2022/04/02 11:06:38;;;;;;;;;;;;;;;17.12;40.74;99282.69;4980730;28;1004;-56
2022/04/02 11:09:20;;;;;;;;;;;;;;;17.33;42.31;99282.97;4973234;28;826;-56
2022/04/02 11:11:46;;;;;;;;;;;;;;;17.76;45.06;99278.81;4975412;28;1989;-56
2022/04/02 11:14:11;;;;;;;;;;;;;;;18.13;46.87;99276.66;4975994;28;773;-56
2022/04/02 11:16:40;;;;;;;;;;;;;;;18.50;47.89;99268.16;4976342;28;1214;-56
2022/04/02 11:21:56;;;;;;;;;;;;;;;18.79;48.45;99257.28;4977061;28;803;-56
2022/04/02 11:24:22;;;;;;;;;;;;;;;18.52;46.94;99265.88;4980123;28;1279;-56
2022/04/02 11:26:48;;;;;;;;;;;;;;;18.20;45.27;99259.69;4988463;28;1204;-56
2022/04/02 11:29:13;;;;;;;;;;;;;;;17.99;43.44;99276.78;4979844;28;1241;-56
2022/04/02 11:31:39;;;;;;;;;;;;;;;17.81;42.22;99270.44;4974440;28;1910;-56
2022/04/02 11:34:06;;;;;;;;;;;;;;;17.62;41.19;99263.22;4978009;28;1252;-55
2022/04/02 11:36:42;;;;;;;;;;;;;;;17.50;40.38;99259.47;4979834;28;1174;-55
2022/04/02 11:39:10;;;;;;;;;;;;;;;17.40;39.82;99266.03;4995426;28;1249;-56
2022/04/02 11:41:40;;;;;;;;;;;;;;;17.33;39.29;99261.00;4999955;28;1205;-56
2022/04/02 11:44:07;;;;;;;;;;;;;;;17.19;39.18;99247.34;4999808;28;857;-57
2022/04/02 11:46:51;;;;;;;;;;;;;;;17.21;39.65;99247.84;5000083;28;779;-57
2022/04/02 11:49:29;;;;;;;;;;;;;;;17.04;39.18;99243.09;4993984;28;843;-57
2022/04/02 11:52:02;;;;;;;;;;;;;;;16.95;39.11;99250.44;4999795;28;1910;-56
2022/04/02 11:54:28;;;;;;;;;;;;;;;16.86;38.55;99241.31;5002252;28;877;-56
2022/04/02 11:57:05;;;;;;;;;;;;;;;16.89;39.15;99224.25;4982168;28;1188;-57
2022/04/02 11:59:30;;;;;;;;;;;;;;;17.00;40.32;99219.28;5003238;28;751;-56
2022/04/02 12:01:56;;;;;;;;;;;;;;;17.25;41.78;99221.38;5001090;28;843;-56
2022/04/02 12:04:25;;;;;;;;;;;;;;;17.35;42.64;99227.69;5000975;28;797;-57
2022/04/02 12:06:51;;;;;;;;;;;;;;;17.57;43.57;99216.66;5018437;28;866;-56
2022/04/02 12:09:18;;;;;;;;;;;;;;;17.64;44.22;99212.63;5014698;28;901;-56
2022/04/02 12:11:47;;;;;;;;;;;;;;;17.73;44.75;99219.78;5014402;28;1914;-57
2022/04/02 12:14:24;;;;;;;;;;;;;;;17.77;44.77;99223.50;5015461;28;809;-56
2022/04/02 12:16:54;;;;;;;;;;;;;;;17.87;45.01;99230.66;4997271;28;963;-56
2022/04/02 12:19:22;;;;;;;;;;;;;;;17.89;45.10;99205.56;4999724;28;802;-56
2022/04/02 12:21:48;;;;;;;;;;;;;;;17.91;44.79;99192.38;4998529;28;1083;-56
2022/04/02 12:24:14;;;;;;;;;;;;;;;17.98;44.86;99206.44;5002581;28;1134;-56
2022/04/02 12:26:39;;;;;;;;;;;;;;;18.00;45.22;99195.91;5015702;28;889;-57
2022/04/02 12:29:05;;;;;;;;;;;;;;;18.05;44.82;99193.03;5018622;28;885;-57
2022/04/02 12:31:31;;;;;;;;;;;;;;;18.04;44.78;99176.84;5017609;28;830;-56
2022/04/02 12:33:58;;;;;;;;;;;;;;;18.06;45.04;99189.16;5017703;28;1999;-56
2022/04/02 12:36:35;;;;;;;;;;;;;;;18.09;45.19;99180.25;5017529;28;846;-56
2022/04/02 12:39:06;;;;;;;;;;;;;;;18.13;45.04;99172.13;5007516;28;959;-57
2022/04/02 12:41:31;;;;;;;;;;;;;;;18.27;45.06;99182.97;5016371;28;843;-55
2022/04/02 12:44:00;;;;;;;;;;;;;;;18.27;44.91;99188.47;5018009;28;860;-55
2022/04/02 12:46:27;;;;;;;;;;;;;;;18.26;44.82;99181.38;5018085;28;742;-56
2022/04/02 12:48:52;;;;;;;;;;;;;;;18.15;44.27;99180.09;5018192;28;842;-56
2022/04/02 12:51:18;;;;;;;;;;;;;;;17.95;43.44;99176.84;5015633;28;846;-57
2022/04/02 12:53:47;;;;;;;;;;;;;;;17.73;42.18;99175.00;5010691;28;1965;-57
2022/04/02 12:56:19;;;;;;;;;;;;;;;17.65;41.21;99160.09;4997198;28;1295;-56
2022/04/02 12:58:45;;;;;;;;;;;;;;;17.48;40.55;99162.81;4997065;28;923;-55
2022/04/02 13:01:10;;;;;;;;;;;;;;;17.36;40.05;99172.47;4998430;28;893;-56
2022/04/02 13:03:59;;;;;;;;;;;;;;;17.30;39.58;99181.16;4995661;28;920;-56
2022/04/02 13:06:26;;;;;;;;;;;;;;;17.19;39.52;99169.63;4986569;28;1720;-56
2022/04/02 13:09:07;;;;;;;;;;;;;;;17.11;39.34;99163.00;4997329;28;1212;-55
2022/04/02 13:11:51;;;;;;;;;;;;;;;17.03;39.17;99153.56;4992761;28;1153;-56
2022/04/02 13:14:18;;;;;;;;;;;;;;;17.00;39.14;99156.97;4991983;28;1232;-55
2022/04/02 13:16:48;;;;;;;;;;;;;;;17.01;39.06;99161.34;4996545;28;1276;-56